Christina O — C6FN7 — position and weather

sailwx.info

Track history (hours):
 
Tides and Currents Weather Stations Pressure Air Temp Water Temp Dewpoint Dewpoint Depression Visibility Wind Speed Wind Dir Waves Ship Positions

Christina O

Operator: V Ships Leisure SAM

Last reported at 2016-May-24 16:33 UTC. Time now 2016-May-24 17:46 UTC.
Position N 48°40' W 005°06'.

Length 186 m; draft 6.1 m.

Type: Passenger vessel. MMSI: 308322000.

Date/timePositionNaut miles runAvg speedWind from/ knotsBaromVisibWave heightAir tempDewpointWater temp
2016-May-24 16:33N 48°40' W 005°06'1212.1
2016-May-24 15:33N 48°33' W 005°21'1512.8
2016-May-24 14:22N 48°18' W 005°26'1113.7
2016-May-24 13:33N 48°07' W 005°22'1414.2
2016-May-24 12:33N 47°55' W 005°12'1413.9
2016-May-24 11:33N 47°43' W 005°02'2214.8
2016-May-24 10:06N 47°27' W 004°40'1315.7
2016-May-24 09:16N 47°18' W 004°26'1216.3
2016-May-24 08:33N 47°10' W 004°14'1816.1
2016-May-24 07:25N 46°57' W 003°55'1615.9
2016-May-24 06:24N 46°46' W 003°38'1615.9
2016-May-24 05:25N 46°35' W 003°21'1415.6
2016-May-24 04:30N 46°25' W 003°06'1815.5
2016-May-24 03:20N 46°13' W 002°47'1415.3
2016-May-24 02:26N 46°04' W 002°33'57 1.2
2016-May-22 01:33N 45°37' W 001°20'1111.5
2016-May-22 00:33N 45°31' W 001°33'1110.7
2016-May-21 23:33N 45°22' W 001°42'1412.9
2016-May-21 22:28N 45°10' W 001°51'1314.3
2016-May-21 21:33N 44°58' W 001°60'1614.7
2016-May-21 20:26N 44°44' W 002°10'89 5.2
2016-May-21 03:33N 43°25' W 003°08'1411.5
2016-May-21 02:19N 43°33' W 003°24'7410.7
2016-May-20 19:24N 43°39' W 005°06'1011.3
2016-May-20 18:33N 43°39' W 005°19'1110.9
2016-May-20 17:34N 43°36' W 005°34'6 2.6
2016-May-20 15:18N 43°34' W 005°41'0 0.0
2016-May-20 06:06N 43°34' W 005°41'5 3.3
2016-May-20 04:33N 43°39' W 005°41'9 9.0
2016-May-20 03:33N 43°45' W 005°50'1010.4
2016-May-20 02:33N 43°46' W 006°04'1110.6
2016-May-20 01:33N 43°47' W 006°19'280 5.6
2016-May-17 23:21N 39°48' W 009°34'1214.1
2016-May-17 22:31N 39°37' W 009°41'1414.1
2016-May-17 21:32N 39°23' W 009°44'1414.3
2016-May-17 20:33N 39°09' W 009°43'1514.5
2016-May-17 19:33N 38°55' W 009°42'1414.4
2016-May-17 18:33N 38°41' W 009°41'1313.4
2016-May-17 17:33N 38°37' W 009°25'1212.0
2016-May-17 16:33N 38°41' W 009°10'3 2.5
2016-May-17 15:31N 38°43' W 009°07'0 0.0
2016-May-17 14:31N 38°43' W 009°07'0 0.0
2016-May-17 13:31N 38°43' W 009°07'0 0.0
2016-May-17 12:31N 38°43' W 009°07'0 0.0
2016-May-17 11:31N 38°43' W 009°07'0 0.0
2016-May-17 10:31N 38°43' W 009°07'0 0.0
2016-May-17 09:31N 38°43' W 009°07'0 0.0
2016-May-17 08:31N 38°43' W 009°07'0 0.0
2016-May-17 07:31N 38°43' W 009°07'0 0.1
2016-May-17 06:28N 38°43' W 009°07'4 4.5
2016-May-17 05:33N 38°41' W 009°12'8 8.1
2016-May-17 04:33N 38°38' W 009°22'1111.0
2016-May-17 03:33N 38°27' W 009°25'1010.4
2016-May-17 02:33N 38°17' W 009°28'1010.0
2016-May-17 01:33N 38°07' W 009°30'10 9.8
2016-May-17 00:33N 37°57' W 009°32'10 9.8
2016-May-16 23:33N 37°48' W 009°34'10 9.9
2016-May-16 22:33N 37°38' W 009°37'1010.1
2016-May-16 21:33N 37°28' W 009°39'1010.3
2016-May-16 20:33N 37°18' W 009°41'1010.0
2016-May-16 19:33N 37°08' W 009°44'1010.3
2016-May-16 18:33N 36°58' W 009°45'1311.2
2016-May-16 17:22N 36°44' W 009°45'1212.7
2016-May-16 16:26N 36°33' W 009°44'1312.5
2016-May-16 15:23N 36°20' W 009°44'1012.2
2016-May-16 14:33N 36°09' W 009°43'  
Track history (hours):
 
Tides and Currents Weather Stations Pressure Air Temp Water Temp Dewpoint Dewpoint Depression Visibility Wind Speed Wind Dir Waves Ship Positions

Christina O

Operator: V Ships Leisure SAM

Last reported at 2016-May-24 16:33 UTC. Time now 2016-May-24 17:46 UTC.
Position N 48°40' W 005°06'.

Length 186 m; draft 6.1 m.

Type: Passenger vessel. MMSI: 308322000.

Date/timePositionNaut miles runAvg speedWind from/ knotsBaromVisibWave heightAir tempDewpointWater temp
2016-May-24 16:33N 48°40' W 005°06'1212.1
2016-May-24 15:33N 48°33' W 005°21'1512.8
2016-May-24 14:22N 48°18' W 005°26'1113.7
2016-May-24 13:33N 48°07' W 005°22'1414.2
2016-May-24 12:33N 47°55' W 005°12'1413.9
2016-May-24 11:33N 47°43' W 005°02'2214.8
2016-May-24 10:06N 47°27' W 004°40'1315.7
2016-May-24 09:16N 47°18' W 004°26'1216.3
2016-May-24 08:33N 47°10' W 004°14'1816.1
2016-May-24 07:25N 46°57' W 003°55'1615.9
2016-May-24 06:24N 46°46' W 003°38'1615.9
2016-May-24 05:25N 46°35' W 003°21'1415.6
2016-May-24 04:30N 46°25' W 003°06'1815.5
2016-May-24 03:20N 46°13' W 002°47'1415.3
2016-May-24 02:26N 46°04' W 002°33'57 1.2
2016-May-22 01:33N 45°37' W 001°20'1111.5
2016-May-22 00:33N 45°31' W 001°33'1110.7
2016-May-21 23:33N 45°22' W 001°42'1412.9
2016-May-21 22:28N 45°10' W 001°51'1314.3
2016-May-21 21:33N 44°58' W 001°60'1614.7
2016-May-21 20:26N 44°44' W 002°10'89 5.2
2016-May-21 03:33N 43°25' W 003°08'1411.5
2016-May-21 02:19N 43°33' W 003°24'7410.7
2016-May-20 19:24N 43°39' W 005°06'1011.3
2016-May-20 18:33N 43°39' W 005°19'1110.9
2016-May-20 17:34N 43°36' W 005°34'6 2.6
2016-May-20 15:18N 43°34' W 005°41'0 0.0
2016-May-20 06:06N 43°34' W 005°41'5 3.3
2016-May-20 04:33N 43°39' W 005°41'9 9.0
2016-May-20 03:33N 43°45' W 005°50'1010.4
2016-May-20 02:33N 43°46' W 006°04'1110.6
2016-May-20 01:33N 43°47' W 006°19'280 5.6
2016-May-17 23:21N 39°48' W 009°34'1214.1
2016-May-17 22:31N 39°37' W 009°41'1414.1
2016-May-17 21:32N 39°23' W 009°44'1414.3
2016-May-17 20:33N 39°09' W 009°43'1514.5
2016-May-17 19:33N 38°55' W 009°42'1414.4
2016-May-17 18:33N 38°41' W 009°41'1313.4
2016-May-17 17:33N 38°37' W 009°25'1212.0
2016-May-17 16:33N 38°41' W 009°10'3 2.5
2016-May-17 15:31N 38°43' W 009°07'0 0.0
2016-May-17 14:31N 38°43' W 009°07'0 0.0
2016-May-17 13:31N 38°43' W 009°07'0 0.0
2016-May-17 12:31N 38°43' W 009°07'0 0.0
2016-May-17 11:31N 38°43' W 009°07'0 0.0
2016-May-17 10:31N 38°43' W 009°07'0 0.0
2016-May-17 09:31N 38°43' W 009°07'0 0.0
2016-May-17 08:31N 38°43' W 009°07'0 0.0
2016-May-17 07:31N 38°43' W 009°07'0 0.1
2016-May-17 06:28N 38°43' W 009°07'4 4.5
2016-May-17 05:33N 38°41' W 009°12'8 8.1
2016-May-17 04:33N 38°38' W 009°22'1111.0
2016-May-17 03:33N 38°27' W 009°25'1010.4
2016-May-17 02:33N 38°17' W 009°28'1010.0
2016-May-17 01:33N 38°07' W 009°30'10 9.8
2016-May-17 00:33N 37°57' W 009°32'10 9.8
2016-May-16 23:33N 37°48' W 009°34'10 9.9
2016-May-16 22:33N 37°38' W 009°37'1010.1
2016-May-16 21:33N 37°28' W 009°39'1010.3
2016-May-16 20:33N 37°18' W 009°41'1010.0
2016-May-16 19:33N 37°08' W 009°44'1010.3
2016-May-16 18:33N 36°58' W 009°45'1311.2
2016-May-16 17:22N 36°44' W 009°45'1212.7
2016-May-16 16:26N 36°33' W 009°44'1312.5
2016-May-16 15:23N 36°20' W 009°44'1012.2
2016-May-16 14:33N 36°09' W 009°43'  

Dump ship's entire track history